Time;durP1;ratioP1;P1;durP2;ratioP2;P2;SDS_P1;SDS_P2;PMS_P1;PMS_P2;Temp;Humidity;BMP_temperature;BMP_pressure;BME280_temperature;BME280_humidity;BME280_pressure;Samples;Min_cycle;Max_cycle;Signal;HPM_P1;HPM_P2
2021/12/28 00:01:45;;;;;;;;;;;7.90;99.90;;;;;;5096225;28;19965;-73
2021/12/28 00:04:10;;;;;;;;;;;7.90;99.90;;;;;;5096020;28;19927;-74
2021/12/28 00:06:36;;;;;;;;;;;7.90;99.90;;;;;;5096165;28;19922;-75
2021/12/28 00:09:02;;;;;;;;;;;7.80;99.90;;;;;;5096289;28;19958;-74
2021/12/28 00:11:28;;;;;;;;;;;7.80;99.90;;;;;;5096235;28;19908;-74
2021/12/28 00:14:00;;;;;;;;;;;7.70;99.90;;;;;;5096331;28;19915;-74
2021/12/28 00:16:32;;;;;;;;;;;7.70;99.90;;;;;;5096196;28;19911;-74
2021/12/28 00:18:58;;;;;;;;;;;7.80;99.90;;;;;;5096240;28;19908;-74
2021/12/28 00:21:24;;;;;;;;;;;7.70;99.90;;;;;;5096210;28;19908;-74
2021/12/28 00:23:49;;;;;;;;;;;7.70;99.90;;;;;;5095804;28;19923;-78
2021/12/28 00:26:15;;;;;;;;;;;7.70;99.90;;;;;;5094766;28;19920;-74
2021/12/28 00:28:42;;;;;;;;;;;7.70;99.90;;;;;;5095424;28;19908;-74
2021/12/28 00:31:08;;;;;;;;;;;7.80;99.90;;;;;;5094873;28;19915;-74
2021/12/28 00:33:34;;;;;;;;;;;7.80;99.90;;;;;;5095394;28;19907;-74
2021/12/28 00:36:00;;;;;;;;;;;7.80;99.90;;;;;;5094278;28;19977;-78
2021/12/28 00:38:26;;;;;;;;;;;7.80;99.90;;;;;;5095755;28;20294;-74
2021/12/28 00:40:54;;;;;;;;;;;7.80;99.90;;;;;;5095759;28;19911;-79
2021/12/28 00:43:20;;;;;;;;;;;7.80;99.90;;;;;;5095494;28;19994;-74
2021/12/28 00:45:46;;;;;;;;;;;7.80;99.90;;;;;;5095462;28;20390;-75
2021/12/28 00:48:12;;;;;;;;;;;7.80;99.90;;;;;;5095515;28;19912;-75
2021/12/28 00:50:38;;;;;;;;;;;7.90;99.90;;;;;;5077319;28;19915;-76
2021/12/28 00:53:04;;;;;;;;;;;7.90;99.90;;;;;;5095533;28;19907;-75
2021/12/28 00:55:30;;;;;;;;;;;7.90;99.90;;;;;;5095502;28;19934;-75
2021/12/28 00:57:56;;;;;;;;;;;7.90;99.90;;;;;;5095364;28;19911;-79
2021/12/28 01:00:23;;;;;;;;;;;7.80;99.90;;;;;;5095446;28;19924;-74
2021/12/28 01:02:49;;;;;;;;;;;7.70;99.90;;;;;;5094807;28;19966;-78
2021/12/28 01:05:16;;;;;;;;;;;7.70;99.90;;;;;;5095126;28;19911;-78
2021/12/28 01:07:41;;;;;;;;;;;7.60;99.90;;;;;;5095147;28;20083;-76
2021/12/28 01:10:09;;;;;;;;;;;7.50;99.90;;;;;;5095244;28;19908;-76
2021/12/28 01:12:35;;;;;;;;;;;7.50;99.90;;;;;;5094940;28;20378;-76
2021/12/28 01:15:00;;;;;;;;;;;7.50;99.90;;;;;;5094970;28;19942;-76
2021/12/28 01:17:26;;;;;;;;;;;7.70;99.90;;;;;;5095030;28;19915;-75
2021/12/28 01:19:51;;;;;;;;;;;7.70;99.90;;;;;;5095056;28;19916;-74
2021/12/28 01:22:17;;;;;;;;;;;7.60;99.90;;;;;;5094762;28;19911;-74
2021/12/28 01:24:43;;;;;;;;;;;7.50;99.90;;;;;;5094589;28;19914;-74
2021/12/28 01:27:08;;;;;;;;;;;7.60;99.90;;;;;;5094350;28;19911;-79
2021/12/28 01:29:34;;;;;;;;;;;7.60;99.90;;;;;;5094567;28;19957;-76
2021/12/28 01:32:00;;;;;;;;;;;7.60;99.90;;;;;;5094107;28;20321;-74
2021/12/28 01:34:25;;;;;;;;;;;7.60;99.90;;;;;;5094549;28;20407;-80
2021/12/28 01:36:51;;;;;;;;;;;7.60;99.90;;;;;;5094511;28;19987;-79
2021/12/28 01:39:17;;;;;;;;;;;7.60;99.90;;;;;;5094197;28;20007;-79
2021/12/28 01:41:42;;;;;;;;;;;7.70;99.90;;;;;;5094072;28;19965;-79
2021/12/28 01:44:09;;;;;;;;;;;7.70;99.90;;;;;;5094358;28;20038;-79
2021/12/28 01:46:36;;;;;;;;;;;7.70;99.90;;;;;;5094366;28;19908;-79
2021/12/28 01:49:03;;;;;;;;;;;7.70;99.90;;;;;;5076136;28;20342;-79
2021/12/28 01:51:28;;;;;;;;;;;7.80;99.90;;;;;;5094343;28;19907;-76
2021/12/28 01:53:56;;;;;;;;;;;7.90;99.90;;;;;;5094165;28;19915;-79
2021/12/28 01:56:23;;;;;;;;;;;8.00;99.90;;;;;;5093966;28;19915;-79
2021/12/28 01:58:49;;;;;;;;;;;8.00;99.90;;;;;;5094198;28;20237;-79
2021/12/28 02:01:15;;;;;;;;;;;8.00;99.90;;;;;;5094165;28;19908;-77
2021/12/28 02:03:41;;;;;;;;;;;8.10;99.90;;;;;;5075912;28;19976;-80
2021/12/28 02:06:07;;;;;;;;;;;8.10;99.90;;;;;;5093992;28;19908;-80
2021/12/28 02:08:33;;;;;;;;;;;8.10;99.90;;;;;;5075905;28;19915;-79
2021/12/28 02:10:59;;;;;;;;;;;8.20;99.90;;;;;;5093916;28;19912;-75
2021/12/28 02:13:25;;;;;;;;;;;8.10;99.90;;;;;;5093862;28;19908;-79
2021/12/28 02:15:51;;;;;;;;;;;8.00;99.90;;;;;;5093984;28;19915;-80
2021/12/28 02:18:18;;;;;;;;;;;8.00;99.90;;;;;;5093678;28;19908;-80
2021/12/28 02:20:44;;;;;;;;;;;8.00;99.90;;;;;;5093684;28;19946;-74
2021/12/28 02:23:10;;;;;;;;;;;8.00;99.90;;;;;;5093610;28;20351;-74
2021/12/28 02:25:36;;;;;;;;;;;8.00;99.90;;;;;;5093697;28;19916;-74
2021/12/28 02:28:02;;;;;;;;;;;8.00;99.90;;;;;;5093793;28;20396;-78
2021/12/28 02:30:27;;;;;;;;;;;8.10;99.90;;;;;;5093867;28;19914;-79
2021/12/28 02:32:53;;;;;;;;;;;8.10;99.90;;;;;;5093721;28;20345;-79
2021/12/28 02:35:21;;;;;;;;;;;8.00;99.90;;;;;;5093692;28;19921;-74
2021/12/28 02:37:47;;;;;;;;;;;7.90;99.90;;;;;;5093691;28;19908;-80
2021/12/28 02:40:14;;;;;;;;;;;8.00;99.90;;;;;;5093418;28;20275;-74
2021/12/28 02:42:40;;;;;;;;;;;8.00;99.90;;;;;;5093449;28;20006;-74
2021/12/28 02:45:09;;;;;;;;;;;7.90;99.90;;;;;;5093599;28;20371;-76
2021/12/28 02:47:41;;;;;;;;;;;8.00;99.90;;;;;;5093718;28;19908;-75
2021/12/28 02:50:08;;;;;;;;;;;7.90;99.90;;;;;;5100025;28;20274;-74
2021/12/28 02:52:36;;;;;;;;;;;7.90;99.90;;;;;;5099799;28;19915;-76
2021/12/28 02:55:02;;;;;;;;;;;7.90;99.90;;;;;;5100042;28;20388;-76
2021/12/28 02:57:28;;;;;;;;;;;7.90;99.90;;;;;;5100018;28;19908;-74
2021/12/28 02:59:54;;;;;;;;;;;7.90;99.90;;;;;;5100210;28;20021;-79
2021/12/28 03:02:19;;;;;;;;;;;8.00;99.90;;;;;;5100092;28;19922;-80
2021/12/28 03:04:45;;;;;;;;;;;8.00;99.90;;;;;;5100332;28;19926;-78
2021/12/28 03:07:10;;;;;;;;;;;8.10;99.90;;;;;;5100205;28;19980;-74
2021/12/28 03:09:36;;;;;;;;;;;8.00;99.90;;;;;;5100256;28;20355;-80
2021/12/28 03:12:02;;;;;;;;;;;8.00;99.90;;;;;;5100184;28;19974;-77
2021/12/28 03:14:28;;;;;;;;;;;8.10;99.90;;;;;;5099769;28;19908;-75
2021/12/28 03:16:54;;;;;;;;;;;8.20;99.90;;;;;;5099734;28;19953;-74
2021/12/28 03:19:19;;;;;;;;;;;8.20;99.90;;;;;;5100120;28;19959;-74
2021/12/28 03:21:46;;;;;;;;;;;8.10;99.90;;;;;;5100028;28;19954;-76
2021/12/28 03:24:12;;;;;;;;;;;8.20;99.90;;;;;;5099978;28;19920;-74
2021/12/28 03:26:38;;;;;;;;;;;8.20;99.90;;;;;;5099900;28;19912;-77
2021/12/28 03:29:04;;;;;;;;;;;8.20;99.90;;;;;;5099947;28;19916;-78
2021/12/28 03:31:30;;;;;;;;;;;8.30;99.90;;;;;;5099959;28;19912;-74
2021/12/28 03:33:56;;;;;;;;;;;8.20;99.90;;;;;;5099382;28;19911;-75
2021/12/28 03:36:27;;;;;;;;;;;8.50;99.90;;;;;;5099625;28;20003;-75
2021/12/28 03:38:53;;;;;;;;;;;8.40;99.90;;;;;;5099643;28;19970;-74
2021/12/28 03:41:20;;;;;;;;;;;8.40;99.90;;;;;;5099600;28;19911;-78
2021/12/28 03:43:46;;;;;;;;;;;8.40;99.90;;;;;;5099612;28;20267;-75
2021/12/28 03:46:13;;;;;;;;;;;8.40;99.90;;;;;;5099779;28;20437;-75
2021/12/28 03:48:39;;;;;;;;;;;8.40;99.90;;;;;;5099712;28;19995;-76
2021/12/28 03:51:06;;;;;;;;;;;8.40;99.90;;;;;;5099750;28;19955;-78
2021/12/28 03:53:33;;;;;;;;;;;8.50;99.90;;;;;;5099813;28;19965;-76
2021/12/28 03:55:59;;;;;;;;;;;8.50;99.90;;;;;;5099756;28;19908;-74
2021/12/28 03:58:25;;;;;;;;;;;8.50;99.90;;;;;;5099122;28;19961;-75
2021/12/28 04:00:51;;;;;;;;;;;8.40;99.90;;;;;;5096113;28;19995;-74
2021/12/28 04:03:17;;;;;;;;;;;8.40;99.90;;;;;;5096423;28;19920;-74
2021/12/28 04:05:44;;;;;;;;;;;8.40;99.90;;;;;;5096432;28;19995;-74
2021/12/28 04:08:11;;;;;;;;;;;8.40;99.90;;;;;;5096264;28;19915;-79
2021/12/28 04:10:51;;;;;;;;;;;8.40;99.90;;;;;;5096091;28;20443;-73
2021/12/28 04:13:17;;;;;;;;;;;8.40;99.90;;;;;;5096180;28;19981;-74
2021/12/28 04:15:43;;;;;;;;;;;8.40;99.90;;;;;;5096074;28;20399;-74
2021/12/28 04:18:09;;;;;;;;;;;8.40;99.90;;;;;;5095964;28;19951;-73
2021/12/28 04:20:35;;;;;;;;;;;8.50;99.90;;;;;;5096203;28;20390;-73
2021/12/28 04:23:00;;;;;;;;;;;8.60;99.90;;;;;;5095828;28;19915;-73
2021/12/28 04:25:26;;;;;;;;;;;8.60;99.90;;;;;;5095554;28;19938;-73
2021/12/28 04:27:52;;;;;;;;;;;8.60;99.90;;;;;;5095827;28;19985;-75
2021/12/28 04:30:17;;;;;;;;;;;8.60;99.90;;;;;;5095987;28;19919;-73
2021/12/28 04:32:43;;;;;;;;;;;8.60;99.90;;;;;;5095828;28;19944;-74
2021/12/28 04:35:10;;;;;;;;;;;8.70;99.90;;;;;;5095802;28;20328;-73
2021/12/28 04:37:35;;;;;;;;;;;8.80;99.90;;;;;;5095733;28;19908;-73
2021/12/28 04:40:01;;;;;;;;;;;8.90;99.90;;;;;;5095858;28;19976;-74
2021/12/28 04:42:29;;;;;;;;;;;8.80;99.90;;;;;;5095738;28;20312;-74
2021/12/28 04:44:55;;;;;;;;;;;8.80;99.90;;;;;;5077434;28;20270;-74
2021/12/28 04:47:20;;;;;;;;;;;8.90;99.90;;;;;;5095722;28;19908;-73
2021/12/28 04:49:47;;;;;;;;;;;8.90;99.90;;;;;;5095618;28;20476;-74
2021/12/28 04:52:12;;;;;;;;;;;8.90;99.90;;;;;;5095583;28;20347;-74
2021/12/28 04:54:38;;;;;;;;;;;9.00;99.90;;;;;;5095535;28;19937;-74
2021/12/28 04:57:07;;;;;;;;;;;9.00;99.90;;;;;;5095614;28;19912;-73
2021/12/28 04:59:33;;;;;;;;;;;9.10;99.90;;;;;;5095408;28;19981;-73
2021/12/28 05:01:58;;;;;;;;;;;9.20;99.90;;;;;;5095287;28;19965;-73
2021/12/28 05:04:25;;;;;;;;;;;9.10;99.90;;;;;;5095150;28;20291;-74
2021/12/28 05:06:54;;;;;;;;;;;9.20;99.90;;;;;;5095121;28;19908;-73
2021/12/28 05:09:20;;;;;;;;;;;9.20;99.90;;;;;;5095338;28;20428;-73
2021/12/28 05:11:48;;;;;;;;;;;9.30;99.90;;;;;;5094930;28;19908;-73
2021/12/28 05:14:16;;;;;;;;;;;9.30;99.90;;;;;;5094886;28;19908;-73
2021/12/28 05:16:41;;;;;;;;;;;9.20;99.90;;;;;;5095022;28;20342;-73
2021/12/28 05:19:07;;;;;;;;;;;9.30;99.90;;;;;;5095109;28;19908;-73
2021/12/28 05:21:34;;;;;;;;;;;9.30;99.90;;;;;;5094989;28;19915;-73
2021/12/28 05:23:59;;;;;;;;;;;9.20;99.90;;;;;;5094715;28;19950;-73
2021/12/28 05:26:25;;;;;;;;;;;9.20;99.90;;;;;;5094599;28;20374;-73
2021/12/28 05:28:51;;;;;;;;;;;9.30;99.90;;;;;;5094472;28;19908;-73
2021/12/28 05:31:16;;;;;;;;;;;9.30;99.90;;;;;;5094733;28;19908;-73
2021/12/28 05:33:42;;;;;;;;;;;9.30;99.90;;;;;;5094752;28;19908;-73
2021/12/28 05:36:08;;;;;;;;;;;9.30;99.90;;;;;;5094747;28;20361;-73
2021/12/28 05:38:33;;;;;;;;;;;9.40;99.90;;;;;;5076277;28;19915;-73
2021/12/28 05:40:59;;;;;;;;;;;9.50;99.90;;;;;;5094340;28;20379;-73
2021/12/28 05:43:25;;;;;;;;;;;9.50;99.90;;;;;;5094131;28;19923;-73
2021/12/28 05:45:50;;;;;;;;;;;9.50;99.90;;;;;;5094443;28;19912;-73
2021/12/28 05:48:16;;;;;;;;;;;9.70;99.90;;;;;;5094213;28;19912;-76
2021/12/28 05:50:42;;;;;;;;;;;9.70;99.90;;;;;;5094132;28;19912;-74
2021/12/28 05:53:07;;;;;;;;;;;9.70;99.90;;;;;;5094237;28;19908;-79
2021/12/28 05:55:33;;;;;;;;;;;9.60;99.90;;;;;;5094376;28;19911;-75
2021/12/28 05:57:59;;;;;;;;;;;9.60;99.90;;;;;;5094116;28;19951;-77
2021/12/28 06:00:28;;;;;;;;;;;9.70;99.90;;;;;;5094204;28;19935;-79
2021/12/28 06:02:55;;;;;;;;;;;9.70;99.90;;;;;;5093675;28;19911;-73
2021/12/28 06:05:20;;;;;;;;;;;9.70;99.90;;;;;;5094121;28;19912;-73
2021/12/28 06:07:46;;;;;;;;;;;9.80;99.90;;;;;;5094159;28;19912;-73
2021/12/28 06:10:11;;;;;;;;;;;9.80;99.90;;;;;;5093721;28;19996;-73
2021/12/28 06:12:37;;;;;;;;;;;9.80;99.90;;;;;;5093763;28;19912;-73
2021/12/28 06:15:03;;;;;;;;;;;9.90;99.90;;;;;;5075678;28;19911;-73
2021/12/28 06:17:28;;;;;;;;;;;9.90;99.90;;;;;;5075559;28;19912;-73
2021/12/28 06:19:54;;;;;;;;;;;10.00;99.90;;;;;;5093642;28;19914;-73
2021/12/28 06:22:19;;;;;;;;;;;10.20;99.90;;;;;;5093601;28;19934;-73
2021/12/28 06:24:45;;;;;;;;;;;10.20;99.90;;;;;;5092899;28;19912;-73
2021/12/28 06:27:11;;;;;;;;;;;10.20;99.90;;;;;;5093851;28;19916;-74
2021/12/28 06:29:36;;;;;;;;;;;10.30;99.90;;;;;;5093116;28;20263;-73
2021/12/28 06:32:02;;;;;;;;;;;10.30;99.90;;;;;;5092907;28;19915;-73
2021/12/28 06:34:27;;;;;;;;;;;10.20;99.90;;;;;;5093350;28;20381;-72
2021/12/28 06:36:53;;;;;;;;;;;10.30;99.90;;;;;;5092572;28;19915;-73
2021/12/28 06:39:19;;;;;;;;;;;10.30;99.90;;;;;;5093301;28;19912;-73
2021/12/28 06:41:44;;;;;;;;;;;10.20;99.90;;;;;;5093654;28;19934;-73
2021/12/28 06:44:10;;;;;;;;;;;10.30;99.90;;;;;;5075584;28;19920;-73
2021/12/28 06:46:36;;;;;;;;;;;10.30;99.90;;;;;;5093463;28;19908;-72
2021/12/28 06:49:02;;;;;;;;;;;10.30;99.90;;;;;;5075393;28;19916;-73
2021/12/28 06:51:28;;;;;;;;;;;10.40;99.90;;;;;;5093549;28;20362;-78
2021/12/28 06:53:54;;;;;;;;;;;10.30;99.90;;;;;;5093510;28;19908;-77
2021/12/28 06:56:19;;;;;;;;;;;10.30;99.90;;;;;;5075301;28;19912;-79
2021/12/28 06:58:45;;;;;;;;;;;10.40;99.90;;;;;;5093404;28;20285;-73
2021/12/28 07:01:11;;;;;;;;;;;10.40;99.90;;;;;;5093348;28;19914;-74
2021/12/28 07:03:36;;;;;;;;;;;10.50;99.90;;;;;;5093163;28;19952;-73
2021/12/28 07:06:02;;;;;;;;;;;10.60;99.90;;;;;;5093199;28;19934;-74
2021/12/28 07:08:28;;;;;;;;;;;10.60;99.90;;;;;;5093074;28;20426;-77
2021/12/28 07:10:54;;;;;;;;;;;10.80;99.90;;;;;;5092870;28;20275;-73
2021/12/28 07:13:19;;;;;;;;;;;10.70;99.90;;;;;;5092997;28;19912;-79
2021/12/28 07:15:45;;;;;;;;;;;10.60;99.90;;;;;;5092957;28;19916;-73
2021/12/28 07:18:11;;;;;;;;;;;10.60;99.90;;;;;;5074989;28;20398;-79
2021/12/28 07:20:36;;;;;;;;;;;10.60;99.90;;;;;;5075314;28;19908;-73
2021/12/28 07:23:03;;;;;;;;;;;10.50;99.90;;;;;;5092951;28;19912;-73
2021/12/28 07:25:29;;;;;;;;;;;10.50;99.90;;;;;;5092717;28;20446;-77
2021/12/28 07:27:54;;;;;;;;;;;10.60;99.90;;;;;;5093050;28;19918;-73
2021/12/28 07:30:20;;;;;;;;;;;10.60;99.90;;;;;;5093282;28;19915;-73
2021/12/28 07:32:46;;;;;;;;;;;10.80;99.90;;;;;;5093240;28;19947;-72
2021/12/28 07:35:11;;;;;;;;;;;10.80;99.90;;;;;;5095140;28;19962;-73
2021/12/28 07:37:37;;;;;;;;;;;10.50;99.90;;;;;;5097081;28;19915;-73
2021/12/28 07:40:04;;;;;;;;;;;10.60;99.90;;;;;;5096840;28;19908;-73
2021/12/28 07:42:30;;;;;;;;;;;10.50;99.90;;;;;;5096791;28;19919;-73
2021/12/28 07:44:55;;;;;;;;;;;10.30;99.90;;;;;;5096914;28;19908;-73
2021/12/28 07:47:21;;;;;;;;;;;10.10;99.90;;;;;;5096786;28;20409;-78
2021/12/28 07:49:47;;;;;;;;;;;10.30;99.90;;;;;;5096765;28;19908;-73
2021/12/28 07:52:13;;;;;;;;;;;10.30;99.90;;;;;;5096703;28;19908;-74
2021/12/28 07:54:38;;;;;;;;;;;10.50;99.90;;;;;;5096260;28;19907;-78
2021/12/28 07:57:04;;;;;;;;;;;10.70;99.90;;;;;;5096360;28;20018;-73
2021/12/28 07:59:30;;;;;;;;;;;10.60;99.90;;;;;;5096613;28;19947;-74
2021/12/28 08:01:55;;;;;;;;;;;10.70;99.90;;;;;;5096537;28;19915;-73
2021/12/28 08:04:21;;;;;;;;;;;10.80;99.90;;;;;;5078096;28;19920;-72
2021/12/28 08:06:46;;;;;;;;;;;10.90;99.90;;;;;;5096049;28;19954;-72
2021/12/28 08:09:12;;;;;;;;;;;10.90;99.90;;;;;;5096586;28;20266;-72
2021/12/28 08:11:38;;;;;;;;;;;10.90;99.90;;;;;;5078159;28;19923;-72
2021/12/28 08:14:04;;;;;;;;;;;10.80;99.90;;;;;;5096052;28;19948;-73
2021/12/28 08:16:30;;;;;;;;;;;10.80;99.90;;;;;;5095962;28;19912;-73
2021/12/28 08:18:55;;;;;;;;;;;10.90;99.90;;;;;;5095998;28;20558;-73
2021/12/28 08:21:21;;;;;;;;;;;10.70;99.90;;;;;;5096000;28;19912;-73
2021/12/28 08:23:47;;;;;;;;;;;10.80;99.90;;;;;;5095724;28;19923;-73
2021/12/28 08:26:12;;;;;;;;;;;10.70;99.90;;;;;;5095645;28;19920;-73
2021/12/28 08:28:38;;;;;;;;;;;10.80;99.90;;;;;;5095611;28;19999;-75
2021/12/28 08:31:04;;;;;;;;;;;10.90;99.90;;;;;;5095155;28;19908;-73
2021/12/28 08:33:29;;;;;;;;;;;11.10;99.90;;;;;;5095696;28;19908;-77
2021/12/28 08:35:56;;;;;;;;;;;11.00;99.90;;;;;;5094436;28;20359;-73
2021/12/28 08:38:22;;;;;;;;;;;11.00;99.90;;;;;;5095648;28;20397;-73
2021/12/28 08:40:47;;;;;;;;;;;10.90;99.90;;;;;;5077812;28;19911;-73
2021/12/28 08:43:13;;;;;;;;;;;11.10;99.90;;;;;;5077335;28;19941;-73
2021/12/28 08:45:40;;;;;;;;;;;11.10;99.90;;;;;;5095465;28;19912;-78
2021/12/28 08:48:06;;;;;;;;;;;11.00;99.90;;;;;;5095140;28;20626;-76
2021/12/28 08:50:32;;;;;;;;;;;10.90;99.90;;;;;;5095437;28;19916;-73
2021/12/28 08:52:58;;;;;;;;;;;10.80;99.90;;;;;;5095368;28;19908;-74
2021/12/28 08:55:24;;;;;;;;;;;10.80;99.90;;;;;;5095520;28;19908;-73
2021/12/28 08:57:49;;;;;;;;;;;10.90;99.90;;;;;;5095504;28;19908;-79
2021/12/28 09:00:17;;;;;;;;;;;10.80;99.90;;;;;;5095485;28;19908;-73
2021/12/28 09:02:43;;;;;;;;;;;10.80;99.90;;;;;;5095292;28;20282;-78
2021/12/28 09:05:09;;;;;;;;;;;11.00;99.90;;;;;;5076879;28;19908;-78
2021/12/28 09:07:34;;;;;;;;;;;11.00;99.90;;;;;;5094851;28;19914;-78
2021/12/28 09:10:00;;;;;;;;;;;11.20;99.90;;;;;;5095093;28;19915;-79
2021/12/28 09:12:26;;;;;;;;;;;11.10;99.90;;;;;;5094761;28;19912;-77
2021/12/28 09:14:52;;;;;;;;;;;11.20;99.90;;;;;;5094491;28;20074;-78
2021/12/28 09:17:18;;;;;;;;;;;11.20;99.90;;;;;;5079479;28;20355;-74
2021/12/28 09:19:44;;;;;;;;;;;11.10;99.90;;;;;;5094715;28;19908;-74
2021/12/28 09:22:10;;;;;;;;;;;11.20;99.90;;;;;;5076487;28;20321;-77
2021/12/28 09:24:36;;;;;;;;;;;11.10;99.90;;;;;;5094885;28;19916;-75
2021/12/28 09:27:02;;;;;;;;;;;11.20;99.90;;;;;;5093505;28;19951;-75
2021/12/28 09:29:29;;;;;;;;;;;11.30;99.90;;;;;;5093699;28;19947;-75
2021/12/28 09:31:55;;;;;;;;;;;11.30;99.90;;;;;;5094666;28;19915;-75
2021/12/28 09:34:20;;;;;;;;;;;11.50;99.90;;;;;;5094757;28;19953;-76
2021/12/28 09:36:46;;;;;;;;;;;11.40;99.90;;;;;;5094617;28;19912;-73
2021/12/28 09:39:12;;;;;;;;;;;11.40;99.90;;;;;;5094393;28;20324;-74
2021/12/28 09:41:37;;;;;;;;;;;11.50;99.90;;;;;;5094619;28;19912;-75
2021/12/28 09:44:03;;;;;;;;;;;11.40;99.90;;;;;;5094498;28;20060;-74
2021/12/28 09:46:30;;;;;;;;;;;11.40;99.90;;;;;;5094626;28;19915;-76
2021/12/28 09:48:55;;;;;;;;;;;11.40;99.90;;;;;;5094555;28;19953;-75
2021/12/28 09:51:21;;;;;;;;;;;11.50;99.90;;;;;;5094233;28;19907;-75
2021/12/28 09:53:46;;;;;;;;;;;11.40;99.90;;;;;;5104339;28;19984;-76
2021/12/28 09:56:12;;;;;;;;;;;11.50;99.90;;;;;;5101291;28;19994;-73
2021/12/28 09:58:39;;;;;;;;;;;11.50;99.90;;;;;;5104083;28;19912;-74
2021/12/28 10:01:05;;;;;;;;;;;11.50;99.90;;;;;;5103082;28;19908;-73
2021/12/28 10:03:32;;;;;;;;;;;11.60;99.90;;;;;;5103904;28;19915;-73
2021/12/28 10:05:58;;;;;;;;;;;11.70;99.90;;;;;;5104477;28;19908;-76
2021/12/28 10:08:25;;;;;;;;;;;11.70;99.90;;;;;;5102621;28;19912;-74
2021/12/28 10:10:54;;;;;;;;;;;11.80;99.90;;;;;;5085895;28;20312;-73
2021/12/28 10:13:20;;;;;;;;;;;11.80;99.90;;;;;;5104713;28;19915;-74
2021/12/28 10:15:47;;;;;;;;;;;11.80;99.90;;;;;;5102836;28;19908;-73
2021/12/28 10:18:13;;;;;;;;;;;11.90;99.90;;;;;;5103655;28;19907;-73
2021/12/28 10:20:47;;;;;;;;;;;11.90;99.90;;;;;;5104573;28;20282;-74
2021/12/28 10:23:14;;;;;;;;;;;11.90;99.90;;;;;;5101891;28;19916;-73
2021/12/28 10:25:41;;;;;;;;;;;11.90;99.90;;;;;;5102358;28;19916;-74
2021/12/28 10:28:08;;;;;;;;;;;11.90;99.90;;;;;;5104238;28;19964;-74
2021/12/28 10:30:37;;;;;;;;;;;11.80;99.90;;;;;;5103818;28;19915;-73
2021/12/28 10:33:05;;;;;;;;;;;11.90;99.90;;;;;;5102422;28;19934;-75
2021/12/28 10:35:35;;;;;;;;;;;11.80;99.90;;;;;;5103868;28;19914;-74
2021/12/28 10:38:03;;;;;;;;;;;11.80;99.90;;;;;;5104603;28;19995;-76
2021/12/28 10:40:34;;;;;;;;;;;11.80;99.90;;;;;;5102990;28;20354;-76
2021/12/28 10:43:02;;;;;;;;;;;11.80;99.90;;;;;;5102128;28;20290;-76
2021/12/28 10:45:37;;;;;;;;;;;11.80;99.90;;;;;;5103723;28;20377;-75
2021/12/28 10:48:05;;;;;;;;;;;11.90;99.90;;;;;;5104258;28;20006;-76
2021/12/28 10:50:39;;;;;;;;;;;11.80;99.90;;;;;;5109373;28;19912;-76
2021/12/28 10:53:12;;;;;;;;;;;11.80;99.90;;;;;;5104630;28;19908;-75
2021/12/28 10:55:39;;;;;;;;;;;11.90;99.90;;;;;;5085083;28;19951;-74
2021/12/28 10:58:05;;;;;;;;;;;11.90;99.90;;;;;;5101885;28;20449;-76
2021/12/28 11:00:33;;;;;;;;;;;11.90;99.90;;;;;;5103759;28;19957;-74
2021/12/28 11:03:17;;;;;;;;;;;11.90;99.90;;;;;;5103004;28;19924;-75
2021/12/28 11:05:45;;;;;;;;;;;11.90;99.90;;;;;;5099314;28;20309;-76
2021/12/28 11:08:11;;;;;;;;;;;12.00;99.90;;;;;;5089227;28;20410;-75
2021/12/28 11:10:57;;;;;;;;;;;11.90;99.90;;;;;;5094143;28;19954;-76
2021/12/28 11:13:25;;;;;;;;;;;11.90;99.90;;;;;;5096622;28;19915;-75
2021/12/28 11:15:51;;;;;;;;;;;11.90;99.90;;;;;;5114922;28;20383;-76
2021/12/28 11:18:21;;;;;;;;;;;11.80;99.90;;;;;;5099992;28;19938;-76
2021/12/28 11:20:47;;;;;;;;;;;11.90;99.90;;;;;;5112905;28;20381;-76
2021/12/28 11:23:14;;;;;;;;;;;11.90;99.90;;;;;;5107630;28;19916;-76
2021/12/28 11:25:40;;;;;;;;;;;11.90;99.90;;;;;;5105956;28;20401;-75
2021/12/28 11:28:20;;;;;;;;;;;11.80;99.90;;;;;;5107363;28;19939;-75
2021/12/28 11:30:58;;;;;;;;;;;11.80;99.90;;;;;;5107618;28;19908;-75
2021/12/28 11:33:24;;;;;;;;;;;11.80;99.90;;;;;;5106218;28;19908;-76
2021/12/28 11:35:49;;;;;;;;;;;11.80;99.90;;;;;;5097007;28;19961;-75
2021/12/28 11:38:15;;;;;;;;;;;11.90;99.90;;;;;;5102435;28;20251;-76
2021/12/28 11:40:41;;;;;;;;;;;11.80;99.90;;;;;;5099793;28;19908;-76
2021/12/28 11:43:06;;;;;;;;;;;11.90;99.90;;;;;;5096654;28;19958;-76
2021/12/28 11:45:32;;;;;;;;;;;11.90;99.90;;;;;;5096525;28;19927;-75
2021/12/28 11:47:58;;;;;;;;;;;11.90;99.90;;;;;;5096276;28;20070;-75
2021/12/28 11:50:24;;;;;;;;;;;12.00;99.90;;;;;;5100733;28;19915;-77
2021/12/28 11:52:51;;;;;;;;;;;11.90;99.90;;;;;;5096622;28;19908;-75
2021/12/28 11:55:18;;;;;;;;;;;12.00;99.90;;;;;;5096544;28;19912;-75
2021/12/28 11:57:51;;;;;;;;;;;12.00;99.90;;;;;;5083471;28;19994;-75
2021/12/28 12:00:19;;;;;;;;;;;12.10;99.90;;;;;;5102034;28;19911;-76
2021/12/28 12:02:47;;;;;;;;;;;12.10;99.90;;;;;;5109031;28;19915;-75
2021/12/28 12:05:13;;;;;;;;;;;12.20;99.90;;;;;;5105242;28;20428;-75
2021/12/28 12:07:39;;;;;;;;;;;12.30;99.90;;;;;;5104965;28;19908;-75
2021/12/28 12:10:13;;;;;;;;;;;12.30;99.90;;;;;;5105824;28;20010;-76
2021/12/28 12:12:46;;;;;;;;;;;12.40;99.90;;;;;;5101387;28;20370;-75
2021/12/28 12:15:13;;;;;;;;;;;12.50;99.90;;;;;;5102505;28;19916;-76
2021/12/28 12:17:40;;;;;;;;;;;12.50;99.90;;;;;;5077999;28;19908;-76
2021/12/28 12:20:19;;;;;;;;;;;12.50;99.90;;;;;;5098570;28;19923;-76
2021/12/28 12:22:44;;;;;;;;;;;12.50;99.90;;;;;;5112176;28;19911;-76
2021/12/28 12:25:11;;;;;;;;;;;12.50;99.90;;;;;;5107373;28;19965;-76
2021/12/28 12:27:38;;;;;;;;;;;12.40;99.90;;;;;;5092845;28;19916;-76
2021/12/28 12:30:24;;;;;;;;;;;12.40;99.90;;;;;;5095489;28;20302;-76
2021/12/28 12:33:05;;;;;;;;;;;12.30;99.90;;;;;;5097877;28;20002;-76
2021/12/28 12:35:32;;;;;;;;;;;12.30;99.90;;;;;;5110306;28;19911;-76
2021/12/28 12:37:58;;;;;;;;;;;12.30;99.90;;;;;;5116034;28;19980;-76
2021/12/28 12:40:59;;;;;;;;;;;12.20;99.90;;;;;;5116138;28;19943;-76
2021/12/28 12:43:26;;;;;;;;;;;12.20;99.90;;;;;;5093239;28;20426;-75
2021/12/28 12:45:52;;;;;;;;;;;12.10;99.90;;;;;;5116133;28;19908;-76
2021/12/28 12:48:31;;;;;;;;;;;12.20;99.90;;;;;;5116175;28;19915;-76
2021/12/28 12:51:15;;;;;;;;;;;12.20;99.90;;;;;;5116115;28;19911;-75
2021/12/28 12:53:41;;;;;;;;;;;12.20;99.90;;;;;;5109752;28;19953;-76
2021/12/28 12:56:30;;;;;;;;;;;12.10;99.90;;;;;;5104065;28;19908;-75
2021/12/28 12:58:59;;;;;;;;;;;12.10;99.90;;;;;;5095508;28;19950;-75
2021/12/28 13:01:30;;;;;;;;;;;12.00;99.90;;;;;;5113984;28;19907;-77
2021/12/28 13:03:57;;;;;;;;;;;12.00;99.90;;;;;;5097585;28;19923;-76
2021/12/28 13:06:41;;;;;;;;;;;12.00;99.90;;;;;;5103725;28;19934;-77
2021/12/28 13:09:15;;;;;;;;;;;12.00;99.90;;;;;;5101617;28;20003;-74
2021/12/28 13:11:41;;;;;;;;;;;11.90;99.90;;;;;;5104031;28;19915;-77
2021/12/28 13:14:07;;;;;;;;;;;12.00;99.90;;;;;;5103678;28;19907;-76
2021/12/28 13:16:33;;;;;;;;;;;11.90;99.90;;;;;;5115444;28;19907;-77
2021/12/28 13:19:12;;;;;;;;;;;11.90;99.90;;;;;;5106835;28;19946;-78
2021/12/28 13:21:40;;;;;;;;;;;11.90;99.90;;;;;;5103134;28;19908;-76
2021/12/28 13:24:13;;;;;;;;;;;11.90;99.90;;;;;;5085355;28;19919;-76
2021/12/28 13:26:43;;;;;;;;;;;11.90;99.90;;;;;;5086086;28;19938;-75
2021/12/28 13:29:08;;;;;;;;;;;11.90;99.90;;;;;;5105591;28;19907;-72
2021/12/28 13:31:34;;;;;;;;;;;12.00;99.90;;;;;;5104208;28;19915;-74
2021/12/28 13:34:00;;;;;;;;;;;12.00;99.90;;;;;;5103611;28;19911;-72
2021/12/28 13:36:28;;;;;;;;;;;11.90;99.90;;;;;;5104900;28;19919;-74
2021/12/28 13:39:14;;;;;;;;;;;11.90;99.90;;;;;;5103289;28;19907;-74
2021/12/28 13:41:46;;;;;;;;;;;11.90;99.90;;;;;;5094426;28;19953;-75
2021/12/28 13:44:12;;;;;;;;;;;11.90;99.90;;;;;;5094451;28;19916;-75
2021/12/28 13:46:38;;;;;;;;;;;11.90;99.90;;;;;;5094277;28;19915;-75
2021/12/28 13:49:03;;;;;;;;;;;11.90;99.90;;;;;;5092927;28;19934;-77
2021/12/28 13:51:30;;;;;;;;;;;11.90;99.90;;;;;;5094514;28;19939;-77
2021/12/28 13:53:57;;;;;;;;;;;12.10;99.90;;;;;;5076336;28;19912;-76
2021/12/28 13:56:32;;;;;;;;;;;11.90;99.90;;;;;;5094530;28;19908;-76
2021/12/28 13:58:59;;;;;;;;;;;11.90;99.90;;;;;;5094305;28;19954;-78
2021/12/28 14:01:27;;;;;;;;;;;11.90;99.90;;;;;;5092872;28;20354;-78
2021/12/28 14:04:00;;;;;;;;;;;11.80;99.90;;;;;;5075965;28;19923;-77
2021/12/28 14:06:27;;;;;;;;;;;11.80;99.90;;;;;;5094004;28;19908;-77
2021/12/28 14:08:52;;;;;;;;;;;11.70;99.90;;;;;;5094190;28;20358;-78
2021/12/28 14:11:41;;;;;;;;;;;11.80;99.90;;;;;;5094247;28;19915;-77
2021/12/28 14:14:13;;;;;;;;;;;11.90;99.90;;;;;;5094036;28;19919;-76
2021/12/28 14:16:51;;;;;;;;;;;11.80;99.90;;;;;;5094133;28;19914;-75
2021/12/28 14:19:16;;;;;;;;;;;11.70;99.90;;;;;;5094090;28;19908;-76
2021/12/28 14:21:44;;;;;;;;;;;11.60;99.90;;;;;;5094033;28;19915;-73
2021/12/28 14:24:11;;;;;;;;;;;11.60;99.90;;;;;;5093869;28;20325;-75